createdAt,value
2022-08-11T00:00:21.000Z,59.67
2022-08-11T00:02:54.020Z,60.34
2022-08-11T00:05:14.493Z,60.00
2022-08-11T00:07:28.232Z,60.01
2022-08-11T00:09:42.727Z,59.93
2022-08-11T00:11:59.163Z,58.19
2022-08-11T00:14:20.925Z,58.06
2022-08-11T00:16:34.538Z,58.45
2022-08-11T00:18:50.141Z,57.90
2022-08-11T00:21:04.825Z,57.24
2022-08-11T00:23:21.455Z,57.71
2022-08-11T00:25:35.030Z,57.49
2022-08-11T00:27:48.316Z,58.21
2022-08-11T00:30:01.758Z,57.68
2022-08-11T00:32:19.865Z,57.59
2022-08-11T00:34:35.301Z,57.12
2022-08-11T00:36:55.365Z,57.61
2022-08-11T00:39:13.876Z,57.36
2022-08-11T00:41:35.852Z,56.38
2022-08-11T00:44:11.112Z,56.24
2022-08-11T00:46:35.520Z,57.10
2022-08-11T00:49:03.398Z,57.40
2022-08-11T00:51:27.073Z,57.45
2022-08-11T00:54:15.207Z,56.52
2022-08-11T00:57:09.262Z,56.99
2022-08-11T01:00:03.971Z,57.38
2022-08-11T01:02:30.804Z,57.19
2022-08-11T01:05:17.715Z,57.50
2022-08-11T01:08:02.715Z,57.02
2022-08-11T01:10:37.309Z,56.72
2022-08-11T01:13:08.435Z,57.09
2022-08-11T01:16:11.040Z,56.84
2022-08-11T01:19:04.304Z,56.55
2022-08-11T01:21:55.857Z,56.77
2022-08-11T01:24:47.120Z,56.70
2022-08-11T01:27:39.979Z,56.82
2022-08-11T01:30:41.981Z,56.86
2022-08-11T01:33:57.983Z,57.22
2022-08-11T01:36:45.734Z,57.95
2022-08-11T01:39:31.373Z,57.26
2022-08-11T01:42:29.269Z,56.86
2022-08-11T01:45:14.998Z,57.42
2022-08-11T01:47:55.922Z,57.84
2022-08-11T01:50:18.645Z,58.51
2022-08-11T01:52:43.034Z,58.48
2022-08-11T01:55:06.519Z,58.18
2022-08-11T01:57:32.262Z,59.08
2022-08-11T01:59:51.607Z,59.21
2022-08-11T02:02:44.340Z,59.49
2022-08-11T02:05:15.454Z,59.63
2022-08-11T02:07:36.508Z,59.86
2022-08-11T02:10:25.762Z,60.02
2022-08-11T02:12:56.512Z,60.49
2022-08-11T02:15:16.353Z,60.54
2022-08-11T02:17:49.695Z,60.86
2022-08-11T02:20:30.300Z,61.37
2022-08-11T02:23:11.300Z,61.41
2022-08-11T02:25:33.111Z,61.59
2022-08-11T02:27:51.619Z,61.44
2022-08-11T02:30:09.742Z,61.78
2022-08-11T02:32:45.538Z,62.11
2022-08-11T02:35:11.973Z,62.21
2022-08-11T02:37:30.816Z,62.31
2022-08-11T02:39:50.649Z,62.21
2022-08-11T02:42:35.391Z,62.21
2022-08-11T02:45:10.772Z,62.56
2022-08-11T02:47:40.112Z,62.38
2022-08-11T02:50:07.202Z,62.66
2022-08-11T02:52:34.576Z,62.71
2022-08-11T02:54:55.588Z,63.18
2022-08-11T02:57:16.796Z,63.04
2022-08-11T02:59:53.982Z,62.90
2022-08-11T03:02:18.004Z,63.00
2022-08-11T03:04:39.546Z,63.06
2022-08-11T03:07:02.770Z,63.21
2022-08-11T03:09:28.352Z,63.20
2022-08-11T03:12:15.953Z,63.26
2022-08-11T03:14:57.556Z,63.54
2022-08-11T03:17:22.807Z,63.65
2022-08-11T03:19:48.673Z,63.85
2022-08-11T03:22:11.938Z,63.84
2022-08-11T03:24:32.185Z,64.08
2022-08-11T03:26:56.087Z,64.37
2022-08-11T03:29:18.160Z,64.70
2022-08-11T03:31:31.938Z,64.64
2022-08-11T03:34:07.560Z,64.66
2022-08-11T03:37:16.005Z,64.73
2022-08-11T03:39:35.577Z,64.74
2022-08-11T03:42:03.494Z,65.13
2022-08-11T03:44:28.858Z,65.25
2022-08-11T03:47:00.071Z,65.41
2022-08-11T03:49:31.794Z,65.59
2022-08-11T03:51:55.668Z,65.54
2022-08-11T03:54:21.916Z,65.68
2022-08-11T03:57:06.909Z,65.72
2022-08-11T03:59:47.924Z,65.84
2022-08-11T04:02:24.205Z,65.84
2022-08-11T04:05:18.007Z,66.12
2022-08-11T04:08:14.076Z,66.32
2022-08-11T04:11:03.510Z,66.48
2022-08-11T04:14:21.271Z,66.49
2022-08-11T04:16:50.724Z,66.71
2022-08-11T04:19:41.279Z,66.54
2022-08-11T04:22:36.286Z,66.63
2022-08-11T04:25:25.146Z,66.91
2022-08-11T04:28:18.910Z,66.96
2022-08-11T04:31:10.180Z,67.19
2022-08-11T04:33:44.796Z,67.32
2022-08-11T04:36:13.393Z,67.51
2022-08-11T04:38:49.215Z,67.52
2022-08-11T04:41:35.680Z,67.64
2022-08-11T04:44:19.867Z,67.80
2022-08-11T04:46:52.831Z,68.07
2022-08-11T04:49:44.904Z,68.21
2022-08-11T04:52:42.732Z,68.33
2022-08-11T04:55:30.299Z,68.56
2022-08-11T04:58:07.552Z,68.80
2022-08-11T05:00:37.760Z,68.68
2022-08-11T05:03:34.468Z,68.56
2022-08-11T05:06:25.976Z,68.83
2022-08-11T05:09:22.096Z,68.83
2022-08-11T05:12:05.960Z,68.99
2022-08-11T05:14:55.796Z,69.00
2022-08-11T05:17:32.056Z,69.23
2022-08-11T05:20:05.470Z,69.38
2022-08-11T05:22:43.651Z,69.54
2022-08-11T05:26:42.985Z,69.70
2022-08-11T05:28:29.622Z,69.85
2022-08-11T05:31:02.823Z,70.08
2022-08-11T05:33:38.266Z,70.21
2022-08-11T05:36:00.131Z,70.46
2022-08-11T05:38:38.581Z,70.75
2022-08-11T05:41:16.663Z,71.01
2022-08-11T05:44:21.769Z,71.19
2022-08-11T05:46:36.384Z,71.47
2022-08-11T05:49:07.771Z,71.67
2022-08-11T05:51:39.107Z,71.69
2022-08-11T05:54:28.221Z,71.80
2022-08-11T05:56:53.308Z,71.94
2022-08-11T05:59:06.883Z,71.93
2022-08-11T06:01:25.889Z,72.08
2022-08-11T06:03:59.991Z,72.11
2022-08-11T06:06:14.983Z,72.03
2022-08-11T06:08:37.092Z,72.11
2022-08-11T06:10:51.090Z,72.15
2022-08-11T06:13:06.230Z,72.25
2022-08-11T06:15:20.173Z,72.41
2022-08-11T06:17:38.473Z,72.48
2022-08-11T06:20:06.126Z,72.69
2022-08-11T06:22:26.237Z,72.82
2022-08-11T06:24:41.382Z,72.96
2022-08-11T06:27:12.445Z,73.14
2022-08-11T06:29:37.945Z,73.31
2022-08-11T06:32:04.266Z,73.49
2022-08-11T06:34:28.087Z,73.65
2022-08-11T06:36:48.433Z,73.75
2022-08-11T06:39:13.095Z,73.84
2022-08-11T06:41:35.537Z,73.98
2022-08-11T06:43:56.472Z,74.18
2022-08-11T06:46:13.393Z,74.20
2022-08-11T06:48:43.525Z,74.17
2022-08-11T06:51:16.277Z,74.09
2022-08-11T06:53:36.585Z,74.20
2022-08-11T06:56:08.425Z,74.17
2022-08-11T06:58:40.822Z,74.17
2022-08-11T07:01:00.318Z,74.26
2022-08-11T07:03:15.698Z,74.41
2022-08-11T07:05:36.468Z,74.38
2022-08-11T07:08:52.590Z,74.52
2022-08-11T07:11:46.425Z,74.56
2022-08-11T07:14:19.154Z,74.58
2022-08-11T07:16:41.721Z,74.65
2022-08-11T07:19:16.579Z,74.66
2022-08-11T07:22:03.157Z,74.91
2022-08-11T07:24:59.577Z,75.01
2022-08-11T07:27:39.315Z,74.97
2022-08-11T07:29:55.565Z,75.05
2022-08-11T07:32:25.903Z,75.14
2022-08-11T07:34:43.847Z,75.13
2022-08-11T07:36:59.686Z,75.02
2022-08-11T07:39:24.151Z,74.95
2022-08-11T07:41:40.532Z,74.94
2022-08-11T07:44:11.051Z,74.92
2022-08-11T07:46:41.477Z,75.04
2022-08-11T07:49:11.687Z,75.10
2022-08-11T07:51:42.348Z,75.26
2022-08-11T07:53:58.606Z,75.45
2022-08-11T07:56:23.332Z,75.51
2022-08-11T07:59:11.388Z,75.58
2022-08-11T08:01:44.293Z,75.84
2022-08-11T08:04:14.345Z,75.98
2022-08-11T08:06:44.550Z,75.99
2022-08-11T08:09:15.022Z,75.68
2022-08-11T08:11:46.596Z,75.49
2022-08-11T08:14:16.425Z,75.65
2022-08-11T08:16:46.330Z,75.56
2022-08-11T08:18:59.627Z,75.51
2022-08-11T08:21:16.811Z,75.54
2022-08-11T08:23:36.015Z,75.59
2022-08-11T08:25:50.544Z,75.64
2022-08-11T08:28:05.619Z,75.65
2022-08-11T08:30:37.111Z,75.64
2022-08-11T08:32:50.287Z,75.65
2022-08-11T08:35:04.449Z,75.62
2022-08-11T08:37:45.883Z,75.50
2022-08-11T08:39:51.750Z,75.64
2022-08-11T08:42:08.250Z,75.69
2022-08-11T08:44:40.893Z,75.74
2022-08-11T08:46:58.243Z,75.89
2022-08-11T08:49:14.120Z,75.90
2022-08-11T08:52:02.440Z,76.07
2022-08-11T08:54:16.248Z,76.13
2022-08-11T08:56:34.840Z,76.20
2022-08-11T08:58:51.518Z,76.31
2022-08-11T09:01:06.420Z,76.42
2022-08-11T09:03:41.866Z,76.58
2022-08-11T09:05:57.498Z,76.58
2022-08-11T09:08:11.607Z,76.65
2022-08-11T09:10:26.475Z,76.73
2022-08-11T09:12:41.942Z,76.70
2022-08-11T09:15:05.762Z,76.67
2022-08-11T09:17:19.052Z,76.62
2022-08-11T09:19:32.554Z,76.62
2022-08-11T09:22:13.733Z,76.62
2022-08-11T09:24:43.895Z,76.62
2022-08-11T09:27:04.211Z,76.62
2022-08-11T09:29:17.409Z,76.85
2022-08-11T09:31:39.739Z,77.08
2022-08-11T09:33:57.270Z,77.21
2022-08-11T09:36:24.543Z,77.34
2022-08-11T09:38:54.027Z,77.41
2022-08-11T09:41:10.381Z,77.48
2022-08-11T09:43:42.273Z,77.45
2022-08-11T09:45:56.530Z,77.62
2022-08-11T09:48:10.816Z,77.73
2022-08-11T09:50:24.419Z,77.62
2022-08-11T09:52:57.216Z,77.64
2022-08-11T09:55:17.337Z,77.68
2022-08-11T09:57:48.378Z,77.81
2022-08-11T10:00:12.181Z,77.85
2022-08-11T10:02:31.462Z,77.74
2022-08-11T10:04:47.380Z,77.70
2022-08-11T10:07:05.203Z,77.84
2022-08-11T10:09:22.235Z,77.92
2022-08-11T10:11:38.447Z,77.97
2022-08-11T10:14:33.778Z,78.06
2022-08-11T10:16:44.330Z,78.18
2022-08-11T10:18:58.625Z,78.17
2022-08-11T10:21:14.292Z,78.24
2022-08-11T10:24:00.542Z,78.23
2022-08-11T10:26:36.055Z,78.33
2022-08-11T10:29:11.598Z,78.34
2022-08-11T10:31:57.913Z,78.40
2022-08-11T10:34:14.350Z,78.49
2022-08-11T10:36:27.929Z,78.64
2022-08-11T10:38:41.403Z,78.71
2022-08-11T10:41:14.737Z,78.87
2022-08-11T10:44:02.825Z,78.94
2022-08-11T10:46:17.452Z,79.03
2022-08-11T10:48:43.583Z,78.98
2022-08-11T10:51:13.647Z,79.17
2022-08-11T10:53:44.394Z,79.20
2022-08-11T10:56:13.974Z,79.26
2022-08-11T10:58:44.073Z,79.39
2022-08-11T11:01:00.017Z,79.44
2022-08-11T11:03:22.775Z,79.60
2022-08-11T11:06:28.164Z,79.57
2022-08-11T11:08:30.653Z,79.61
2022-08-11T11:10:46.479Z,79.57
2022-08-11T11:13:23.500Z,79.56
2022-08-11T11:15:55.569Z,79.65
2022-08-11T11:18:12.769Z,79.46
2022-08-11T11:20:34.511Z,79.41
2022-08-11T11:22:53.585Z,79.36
2022-08-11T11:25:14.055Z,79.35
2022-08-11T11:27:36.282Z,79.39
2022-08-11T11:30:09.856Z,79.35
2022-08-11T11:32:33.535Z,79.39
2022-08-11T11:35:17.564Z,79.45
2022-08-11T11:37:34.338Z,79.48
2022-08-11T11:39:48.150Z,79.47
2022-08-11T11:42:04.281Z,79.71
2022-08-11T11:44:18.381Z,79.72
2022-08-11T11:46:38.881Z,79.97
2022-08-11T11:48:53.640Z,79.98
2022-08-11T11:51:07.316Z,80.10
2022-08-11T11:53:21.496Z,80.09
2022-08-11T11:55:35.418Z,80.22
2022-08-11T11:58:06.483Z,80.10
2022-08-11T12:00:39.216Z,80.05
2022-08-11T12:02:55.309Z,80.24
2022-08-11T12:05:09.427Z,80.31
2022-08-11T12:07:39.856Z,80.41
2022-08-11T12:09:53.633Z,80.52
2022-08-11T12:12:23.156Z,80.56
2022-08-11T12:14:36.798Z,80.53
2022-08-11T12:16:51.279Z,80.62
2022-08-11T12:19:07.058Z,80.69
2022-08-11T12:21:21.439Z,80.72
2022-08-11T12:23:52.184Z,80.69
2022-08-11T12:26:27.280Z,80.62
2022-08-11T12:28:43.646Z,80.78
2022-08-11T12:30:58.021Z,80.84
2022-08-11T12:33:11.391Z,80.92
2022-08-11T12:35:25.275Z,80.80
2022-08-11T12:37:41.207Z,80.88
2022-08-11T12:40:42.133Z,80.80
2022-08-11T12:43:06.095Z,80.93
2022-08-11T12:45:35.249Z,81.16
2022-08-11T12:48:40.144Z,81.28
2022-08-11T12:50:57.100Z,81.19
2022-08-11T12:53:13.380Z,81.21
2022-08-11T12:55:43.162Z,81.27
2022-08-11T12:58:20.477Z,81.34
2022-08-11T13:00:51.647Z,81.36
2022-08-11T13:03:22.134Z,81.49
2022-08-11T13:05:44.306Z,81.52
2022-08-11T13:07:58.450Z,81.56
2022-08-11T13:10:16.757Z,81.52
2022-08-11T13:12:51.046Z,81.54
2022-08-11T13:15:05.907Z,81.58
2022-08-11T13:17:40.278Z,81.50
2022-08-11T13:19:57.845Z,81.45
2022-08-11T13:22:11.461Z,81.53
2022-08-11T13:24:25.460Z,81.55
2022-08-11T13:26:49.436Z,81.66
2022-08-11T13:29:03.332Z,81.65
2022-08-11T13:31:17.089Z,81.86
2022-08-11T13:33:31.618Z,81.65
2022-08-11T13:35:45.223Z,81.50
2022-08-11T13:38:18.740Z,81.61
2022-08-11T13:40:54.761Z,81.86
2022-08-11T13:43:06.152Z,82.17
2022-08-11T13:45:19.707Z,81.96
2022-08-11T13:47:34.531Z,82.00
2022-08-11T13:49:52.836Z,82.08
2022-08-11T13:52:06.398Z,82.18
2022-08-11T13:54:25.358Z,82.36
2022-08-11T13:56:40.941Z,82.33
2022-08-11T13:58:54.141Z,82.44
2022-08-11T14:02:03.539Z,82.51
2022-08-11T14:04:30.389Z,82.74
2022-08-11T14:06:21.493Z,82.87
2022-08-11T14:08:40.232Z,82.84
2022-08-11T14:12:20.439Z,82.76
2022-08-11T14:13:48.500Z,82.63
2022-08-11T14:16:05.962Z,82.53
2022-08-11T14:18:25.562Z,82.72
2022-08-11T14:20:57.373Z,82.70
2022-08-11T14:23:12.091Z,82.52
2022-08-11T14:26:00.564Z,82.56
2022-08-11T14:28:32.463Z,83.09
2022-08-11T14:30:50.031Z,83.12
2022-08-11T14:33:14.281Z,83.23
2022-08-11T14:35:31.662Z,83.58
2022-08-11T14:37:45.668Z,83.90
2022-08-11T14:40:04.098Z,84.26
2022-08-11T14:42:37.696Z,84.29
2022-08-11T14:45:09.825Z,84.62
2022-08-11T14:47:25.602Z,84.65
2022-08-11T14:49:49.194Z,84.85
2022-08-11T14:52:17.320Z,85.03
2022-08-11T14:54:50.034Z,85.18
2022-08-11T14:57:04.425Z,84.81
2022-08-11T14:59:17.955Z,84.63
2022-08-11T15:02:00.329Z,84.78
2022-08-11T15:04:34.455Z,84.71
2022-08-11T15:06:46.910Z,84.27
2022-08-11T15:09:00.006Z,84.15
2022-08-11T15:11:34.348Z,84.43
2022-08-11T15:13:47.611Z,84.73
2022-08-11T15:16:29.111Z,84.59
2022-08-11T15:18:43.742Z,84.73
2022-08-11T15:21:13.195Z,84.57
2022-08-11T15:23:42.622Z,84.26
2022-08-11T15:26:01.055Z,84.41
2022-08-11T15:28:34.189Z,84.47
2022-08-11T15:31:04.957Z,83.96
2022-08-11T15:33:38.135Z,83.51
2022-08-11T15:36:07.378Z,82.48
2022-08-11T15:38:23.409Z,81.91
2022-08-11T15:40:56.077Z,81.57
2022-08-11T15:43:31.480Z,81.15
2022-08-11T15:45:52.250Z,81.04
2022-08-11T15:48:11.354Z,80.73
2022-08-11T15:50:25.870Z,80.51
2022-08-11T15:52:45.591Z,80.07
2022-08-11T15:55:03.555Z,79.07
2022-08-11T15:57:40.078Z,79.42
2022-08-11T16:00:10.198Z,79.16
2022-08-11T16:02:44.411Z,78.67
2022-08-11T16:04:58.881Z,78.52
2022-08-11T16:07:15.489Z,78.50
2022-08-11T16:09:47.606Z,78.34
2022-08-11T16:12:08.786Z,78.29
2022-08-11T16:14:39.484Z,78.00
2022-08-11T16:16:57.304Z,77.77
2022-08-11T16:19:12.430Z,77.67
2022-08-11T16:21:34.946Z,77.40
2022-08-11T16:23:51.161Z,76.77
2022-08-11T16:27:09.452Z,76.85
2022-08-11T16:28:42.146Z,76.68
2022-08-11T16:30:57.468Z,75.99
2022-08-11T16:33:48.890Z,75.96
2022-08-11T16:36:03.651Z,76.22
2022-08-11T16:38:33.604Z,76.10
2022-08-11T16:40:48.555Z,75.19
2022-08-11T16:43:19.723Z,75.18
2022-08-11T16:45:50.531Z,75.29
2022-08-11T16:48:35.044Z,75.16
2022-08-11T16:50:39.521Z,74.98
2022-08-11T16:52:53.579Z,74.79
2022-08-11T16:55:07.030Z,74.63
2022-08-11T16:57:37.124Z,74.53
2022-08-11T16:59:56.087Z,74.80
2022-08-11T17:02:15.642Z,75.01
2022-08-11T17:04:55.763Z,74.79
2022-08-11T17:07:40.217Z,74.67
2022-08-11T17:10:39.679Z,73.94
2022-08-11T17:13:12.317Z,73.59
2022-08-11T17:15:46.403Z,73.49
2022-08-11T17:18:06.194Z,73.18
2022-08-11T17:20:41.764Z,73.51
2022-08-11T17:23:13.342Z,74.01
2022-08-11T17:25:29.447Z,74.46
2022-08-11T17:27:44.128Z,74.73
2022-08-11T17:29:59.602Z,74.97
2022-08-11T17:32:55.883Z,74.58
2022-08-11T17:35:32.147Z,74.56
2022-08-11T17:37:46.959Z,73.95
2022-08-11T17:40:01.357Z,73.95
2022-08-11T17:42:33.366Z,74.04
2022-08-11T17:45:07.539Z,74.24
2022-08-11T17:47:37.844Z,74.44
2022-08-11T17:49:51.325Z,74.29
2022-08-11T17:52:21.217Z,73.96
2022-08-11T17:54:51.152Z,73.59
2022-08-11T17:57:21.661Z,72.32
2022-08-11T17:59:51.396Z,72.57
2022-08-11T18:02:20.961Z,72.78
2022-08-11T18:04:48.297Z,73.26
2022-08-11T18:07:02.403Z,73.17
2022-08-11T18:09:39.137Z,73.54
2022-08-11T18:12:12.217Z,73.05
2022-08-11T18:14:43.796Z,72.14
2022-08-11T18:17:13.346Z,71.81
2022-08-11T18:19:42.796Z,72.05
2022-08-11T18:22:16.043Z,71.86
2022-08-11T18:24:50.189Z,72.11
2022-08-11T18:27:23.247Z,72.67
2022-08-11T18:29:56.341Z,72.63
2022-08-11T18:32:46.246Z,72.68
2022-08-11T18:35:18.474Z,72.58
2022-08-11T18:37:52.952Z,72.52
2022-08-11T18:40:27.524Z,72.69
2022-08-11T18:43:00.316Z,72.57
2022-08-11T18:45:30.936Z,72.19
2022-08-11T18:48:19.715Z,71.99
2022-08-11T18:51:29.540Z,72.47
2022-08-11T18:53:39.815Z,72.13
2022-08-11T18:56:11.002Z,72.42
2022-08-11T18:58:47.211Z,72.03
2022-08-11T19:01:19.307Z,72.09
2022-08-11T19:03:50.735Z,72.06
2022-08-11T19:06:38.214Z,72.12
2022-08-11T19:09:22.012Z,71.79
2022-08-11T19:11:52.789Z,71.34
2022-08-11T19:14:23.936Z,71.59
2022-08-11T19:16:54.676Z,71.37
2022-08-11T19:19:24.981Z,71.86
2022-08-11T19:21:56.611Z,71.37
2022-08-11T19:24:28.122Z,71.03
2022-08-11T19:26:58.520Z,70.94
2022-08-11T19:30:05.046Z,71.30
2022-08-11T19:32:21.645Z,71.17
2022-08-11T19:34:51.550Z,71.02
2022-08-11T19:37:24.772Z,71.31
2022-08-11T19:39:54.788Z,71.76
2022-08-11T19:42:27.073Z,71.30
2022-08-11T19:44:57.262Z,70.77
2022-08-11T19:47:28.172Z,70.77
2022-08-11T19:49:59.533Z,70.68
2022-08-11T19:52:29.817Z,70.99
2022-08-11T19:55:00.828Z,70.61
2022-08-11T19:57:33.396Z,70.74
2022-08-11T20:00:06.393Z,70.79
2022-08-11T20:02:35.708Z,70.24
2022-08-11T20:05:14.200Z,70.69
2022-08-11T20:07:46.148Z,70.94
2022-08-11T20:10:18.139Z,70.78
2022-08-11T20:12:54.187Z,70.29
2022-08-11T20:15:34.925Z,70.21
2022-08-11T20:18:01.881Z,70.46
2022-08-11T20:20:33.603Z,70.50
2022-08-11T20:23:05.963Z,69.74
2022-08-11T20:25:36.950Z,70.42
2022-08-11T20:28:08.476Z,70.31
2022-08-11T20:30:38.302Z,69.79
2022-08-11T20:33:09.101Z,70.01
2022-08-11T20:35:41.098Z,69.39
2022-08-11T20:38:13.814Z,69.20
2022-08-11T20:40:45.662Z,69.32
2022-08-11T20:44:08.206Z,68.74
2022-08-11T20:46:09.322Z,69.27
2022-08-11T20:48:42.336Z,69.06
2022-08-11T20:51:16.465Z,69.80
2022-08-11T20:53:48.805Z,68.91
2022-08-11T20:56:21.376Z,68.80
2022-08-11T20:59:14.400Z,68.52
2022-08-11T21:01:52.209Z,68.50
2022-08-11T21:04:22.986Z,68.45
2022-08-11T21:06:56.053Z,68.62
2022-08-11T21:09:58.667Z,68.24
2022-08-11T21:12:20.163Z,68.42
2022-08-11T21:14:51.332Z,68.28
2022-08-11T21:17:27.708Z,68.71
2022-08-11T21:20:10.929Z,68.58
2022-08-11T21:22:59.314Z,68.28
2022-08-11T21:25:37.895Z,68.46
2022-08-11T21:28:09.800Z,68.16
2022-08-11T21:30:40.045Z,68.08
2022-08-11T21:33:10.302Z,67.51
2022-08-11T21:35:45.111Z,68.26
2022-08-11T21:38:16.196Z,68.06
2022-08-11T21:40:47.820Z,67.67
2022-08-11T21:43:20.230Z,66.90
2022-08-11T21:45:51.527Z,67.28
2022-08-11T21:48:23.665Z,67.49
2022-08-11T21:50:53.164Z,67.22
2022-08-11T21:53:22.961Z,67.14
2022-08-11T21:55:52.844Z,66.52
2022-08-11T21:58:22.845Z,66.77
2022-08-11T22:00:53.344Z,66.72
2022-08-11T22:03:24.057Z,67.34
2022-08-11T22:05:56.751Z,68.12
2022-08-11T22:08:27.141Z,67.83
2022-08-11T22:10:56.952Z,67.58
2022-08-11T22:13:26.082Z,67.40
2022-08-11T22:15:56.099Z,66.37
2022-08-11T22:18:25.766Z,66.61
2022-08-11T22:20:57.297Z,66.91
2022-08-11T22:23:27.012Z,66.57
2022-08-11T22:26:07.321Z,66.33
2022-08-11T22:28:42.270Z,66.53
2022-08-11T22:31:11.865Z,66.86
2022-08-11T22:34:02.173Z,66.39
2022-08-11T22:36:33.593Z,66.35
2022-08-11T22:39:04.688Z,66.14
2022-08-11T22:41:33.985Z,65.48
2022-08-11T22:44:03.475Z,65.27
2022-08-11T22:46:34.051Z,66.39
2022-08-11T22:49:05.604Z,66.40
2022-08-11T22:51:37.581Z,66.27
2022-08-11T22:54:07.005Z,65.52
2022-08-11T22:56:36.840Z,65.83
2022-08-11T22:59:06.561Z,66.13
2022-08-11T23:01:39.494Z,66.42
2022-08-11T23:04:25.642Z,66.04
2022-08-11T23:06:57.848Z,66.03
2022-08-11T23:09:28.466Z,65.08
2022-08-11T23:12:06.636Z,64.68
2022-08-11T23:14:39.517Z,64.50
2022-08-11T23:17:09.796Z,65.08
2022-08-11T23:20:06.836Z,64.82
2022-08-11T23:22:49.506Z,65.11
2022-08-11T23:25:19.970Z,65.48
2022-08-11T23:27:50.795Z,65.66
2022-08-11T23:30:21.601Z,65.28
2022-08-11T23:32:52.266Z,65.44
2022-08-11T23:35:39.086Z,64.82
2022-08-11T23:38:10.982Z,65.07
2022-08-11T23:40:40.428Z,65.16
2022-08-11T23:43:09.720Z,65.39
2022-08-11T23:45:39.692Z,65.61
2022-08-11T23:48:10.048Z,65.77
2022-08-11T23:50:40.607Z,65.22
2022-08-11T23:53:10.111Z,65.15
2022-08-11T23:55:40.318Z,64.88
2022-08-11T23:58:10.520Z,64.52
